createdAt,value
2018-01-28T00:00:31.514Z,1018.92
2018-01-28T00:01:31.608Z,1018.91
2018-01-28T00:02:31.686Z,1018.87
2018-01-28T00:03:31.772Z,1018.87
2018-01-28T00:04:31.852Z,1018.89
2018-01-28T00:05:31.935Z,1018.91
2018-01-28T00:06:32.029Z,1018.88
2018-01-28T00:07:32.101Z,1018.88
2018-01-28T00:08:32.191Z,1018.88
2018-01-28T00:09:32.274Z,1018.78
2018-01-28T00:10:32.357Z,1018.87
2018-01-28T00:11:32.443Z,1018.75
2018-01-28T00:12:32.529Z,1018.77
2018-01-28T00:13:32.614Z,1018.74
2018-01-28T00:14:32.696Z,1018.72
2018-01-28T00:15:32.786Z,1018.68
2018-01-28T00:16:32.867Z,1018.71
2018-01-28T00:17:32.949Z,1018.65
2018-01-28T00:18:33.044Z,1018.70
2018-01-28T00:19:33.118Z,1018.73
2018-01-28T00:20:33.198Z,1018.80
2018-01-28T00:21:33.290Z,1018.79
2018-01-28T00:22:33.368Z,1018.77
2018-01-28T00:23:33.444Z,1018.75
2018-01-28T00:24:33.532Z,1018.68
2018-01-28T00:25:33.611Z,1018.78
2018-01-28T00:26:33.707Z,1018.82
2018-01-28T00:27:33.783Z,1018.81
2018-01-28T00:28:33.872Z,1018.83
2018-01-28T00:29:33.954Z,1018.83
2018-01-28T00:30:34.038Z,1018.76
2018-01-28T00:31:34.123Z,1018.77
2018-01-28T00:32:34.205Z,1018.80
2018-01-28T00:33:34.288Z,1018.83
2018-01-28T00:34:34.371Z,1018.80
2018-01-28T00:35:34.454Z,1018.76
2018-01-28T00:36:34.535Z,1018.73
2018-01-28T00:37:34.624Z,1018.63
2018-01-28T00:38:34.707Z,1018.60
2018-01-28T00:39:34.787Z,1018.51
2018-01-28T00:40:34.878Z,1018.61
2018-01-28T00:41:34.966Z,1018.59
2018-01-28T00:42:35.045Z,1018.59
2018-01-28T00:43:35.129Z,1018.60
2018-01-28T00:44:35.212Z,1018.52
2018-01-28T00:45:35.298Z,1018.59
2018-01-28T00:46:35.376Z,1018.53
2018-01-28T00:47:35.458Z,1018.58
2018-01-28T00:48:35.552Z,1018.53
2018-01-28T00:49:35.635Z,1018.62
2018-01-28T00:50:35.717Z,1018.54
2018-01-28T00:51:35.797Z,1018.45
2018-01-28T00:52:35.881Z,1018.41
2018-01-28T00:53:35.965Z,1018.36
2018-01-28T00:54:36.049Z,1018.36
2018-01-28T00:55:36.136Z,1018.33
2018-01-28T00:56:36.215Z,1018.42
2018-01-28T00:57:36.305Z,1018.30
2018-01-28T00:58:36.390Z,1018.26
2018-01-28T00:59:36.470Z,1018.34
2018-01-28T01:00:36.555Z,1018.33
2018-01-28T01:01:36.650Z,1018.33
2018-01-28T01:02:36.785Z,1018.27
2018-01-28T01:03:36.804Z,1018.35
2018-01-28T01:04:36.888Z,1018.30
2018-01-28T01:05:36.974Z,1018.35
2018-01-28T01:06:37.058Z,1018.32
2018-01-28T01:07:37.145Z,1018.37
2018-01-28T01:08:37.218Z,1018.37
2018-01-28T01:09:37.308Z,1018.37
2018-01-28T01:10:37.394Z,1018.37
2018-01-28T01:11:37.479Z,1018.44
2018-01-28T01:12:37.560Z,1018.44
2018-01-28T01:13:37.650Z,1018.38
2018-01-28T01:14:37.727Z,1018.46
2018-01-28T01:15:37.806Z,1018.48
2018-01-28T01:16:37.897Z,1018.46
2018-01-28T01:17:37.982Z,1018.47
2018-01-28T01:18:38.064Z,1018.52
2018-01-28T01:19:38.154Z,1018.55
2018-01-28T01:20:38.225Z,1018.54
2018-01-28T01:21:38.316Z,1018.61
2018-01-28T01:22:38.399Z,1018.58
2018-01-28T01:23:38.478Z,1018.56
2018-01-28T01:24:38.567Z,1018.62
2018-01-28T01:25:38.654Z,1018.67
2018-01-28T01:26:38.736Z,1018.61
2018-01-28T01:27:38.816Z,1018.55
2018-01-28T01:28:38.905Z,1018.66
2018-01-28T01:29:38.982Z,1018.69
2018-01-28T01:30:39.066Z,1018.67
2018-01-28T01:31:39.154Z,1018.57
2018-01-28T01:32:39.238Z,1018.52
2018-01-28T01:33:39.322Z,1018.63
2018-01-28T01:34:39.400Z,1018.70
2018-01-28T01:35:39.488Z,1018.57
2018-01-28T01:36:39.569Z,1018.53
2018-01-28T01:37:39.650Z,1018.56
2018-01-28T01:38:39.740Z,1018.54
2018-01-28T01:39:39.824Z,1018.61
2018-01-28T01:40:39.904Z,1018.62
2018-01-28T01:41:39.990Z,1018.53
2018-01-28T01:42:40.070Z,1018.60
2018-01-28T01:43:40.162Z,1018.67
2018-01-28T01:44:40.243Z,1018.65
2018-01-28T01:45:40.330Z,1018.69
2018-01-28T01:46:40.410Z,1018.65
2018-01-28T01:47:40.495Z,1018.63
2018-01-28T01:48:40.573Z,1018.57
2018-01-28T01:49:40.662Z,1018.66
2018-01-28T01:50:40.745Z,1018.61
2018-01-28T01:51:40.824Z,1018.55
2018-01-28T01:52:40.911Z,1018.44
2018-01-28T01:53:40.999Z,1018.51
2018-01-28T01:54:41.078Z,1018.38
2018-01-28T01:55:41.166Z,1018.36
2018-01-28T01:56:41.251Z,1018.45
2018-01-28T01:57:41.335Z,1018.45
2018-01-28T01:58:41.421Z,1018.42
2018-01-28T01:59:41.509Z,1018.33
2018-01-28T02:00:41.588Z,1018.30
2018-01-28T02:01:41.669Z,1018.27
2018-01-28T02:02:41.751Z,1018.25
2018-01-28T02:03:41.840Z,1018.28
2018-01-28T02:04:41.921Z,1018.25
2018-01-28T02:05:42.001Z,1018.32
2018-01-28T02:06:42.084Z,1018.28
2018-01-28T02:07:42.169Z,1018.33
2018-01-28T02:08:42.258Z,1018.33
2018-01-28T02:09:42.335Z,1018.40
2018-01-28T02:10:42.424Z,1018.38
2018-01-28T02:11:42.500Z,1018.42
2018-01-28T02:12:42.586Z,1018.43
2018-01-28T02:13:42.674Z,1018.45
2018-01-28T02:14:42.758Z,1018.30
2018-01-28T02:15:42.839Z,1018.36
2018-01-28T02:16:42.922Z,1018.26
2018-01-28T02:17:43.013Z,1018.37
2018-01-28T02:18:43.089Z,1018.31
2018-01-28T02:19:43.179Z,1018.34
2018-01-28T02:20:43.259Z,1018.33
2018-01-28T02:21:43.344Z,1018.48
2018-01-28T02:22:43.429Z,1018.45
2018-01-28T02:23:43.508Z,1018.44
2018-01-28T02:24:43.600Z,1018.37
2018-01-28T02:25:43.674Z,1018.38
2018-01-28T02:26:43.768Z,1018.36
2018-01-28T02:27:43.847Z,1018.35
2018-01-28T02:28:43.932Z,1018.37
2018-01-28T02:29:44.014Z,1018.39
2018-01-28T02:30:44.096Z,1018.37
2018-01-28T02:31:44.178Z,1018.30
2018-01-28T02:32:44.265Z,1018.34
2018-01-28T02:33:44.346Z,1018.43
2018-01-28T02:34:44.438Z,1018.47
2018-01-28T02:35:44.521Z,1018.51
2018-01-28T02:36:44.599Z,1018.33
2018-01-28T02:37:44.683Z,1018.38
2018-01-28T02:38:44.764Z,1018.56
2018-01-28T02:39:44.857Z,1018.51
2018-01-28T02:40:44.937Z,1018.52
2018-01-28T02:41:45.025Z,1018.49
2018-01-28T02:42:45.105Z,1018.55
2018-01-28T02:43:45.185Z,1018.62
2018-01-28T02:44:45.271Z,1018.61
2018-01-28T02:45:45.361Z,1018.65
2018-01-28T02:46:45.436Z,1018.58
2018-01-28T02:47:45.517Z,1018.60
2018-01-28T02:48:45.602Z,1018.56
2018-01-28T02:49:45.690Z,1018.55
2018-01-28T02:50:45.770Z,1018.56
2018-01-28T02:51:45.857Z,1018.48
2018-01-28T02:52:45.941Z,1018.46
2018-01-28T02:53:46.022Z,1018.62
2018-01-28T02:54:46.114Z,1018.53
2018-01-28T02:55:46.198Z,1018.51
2018-01-28T02:56:46.272Z,1018.63
2018-01-28T02:57:46.362Z,1018.59
2018-01-28T02:58:46.454Z,1018.52
2018-01-28T02:59:46.533Z,1018.64
2018-01-28T03:00:46.610Z,1018.72
2018-01-28T03:01:46.694Z,1018.71
2018-01-28T03:02:46.782Z,1018.77
2018-01-28T03:03:46.866Z,1018.73
2018-01-28T03:04:46.950Z,1018.70
2018-01-28T03:05:47.028Z,1018.72
2018-01-28T03:06:47.116Z,1018.73
2018-01-28T03:07:47.195Z,1018.65
2018-01-28T03:08:47.288Z,1018.64
2018-01-28T03:09:47.366Z,1018.63
2018-01-28T03:10:47.451Z,1018.60
2018-01-28T03:11:47.534Z,1018.58
2018-01-28T03:12:47.619Z,1018.60
2018-01-28T03:13:47.702Z,1018.62
2018-01-28T03:14:47.784Z,1018.72
2018-01-28T03:15:47.869Z,1018.72
2018-01-28T03:16:47.957Z,1018.82
2018-01-28T03:17:48.040Z,1018.84
2018-01-28T03:18:48.172Z,1018.90
2018-01-28T03:19:48.210Z,1018.94
2018-01-28T03:20:48.289Z,1018.88
2018-01-28T03:21:48.372Z,1018.80
2018-01-28T03:22:48.454Z,1018.91
2018-01-28T03:23:48.546Z,1018.92
2018-01-28T03:24:48.624Z,1018.96
2018-01-28T03:25:48.710Z,1018.88
2018-01-28T03:26:48.793Z,1018.96
2018-01-28T03:27:48.875Z,1019.06
2018-01-28T03:28:48.953Z,1018.95
2018-01-28T03:29:49.046Z,1019.00
2018-01-28T03:30:49.125Z,1018.94
2018-01-28T03:31:49.208Z,1018.85
2018-01-28T03:32:49.297Z,1018.79
2018-01-28T03:33:49.373Z,1018.85
2018-01-28T03:34:49.462Z,1018.75
2018-01-28T03:35:49.545Z,1018.76
2018-01-28T03:36:49.630Z,1018.81
2018-01-28T03:37:49.717Z,1018.72
2018-01-28T03:38:49.795Z,1018.70
2018-01-28T03:39:49.878Z,1018.58
2018-01-28T03:40:49.962Z,1018.64
2018-01-28T03:41:50.051Z,1018.75
2018-01-28T03:42:50.127Z,1018.82
2018-01-28T03:43:50.210Z,1018.87
2018-01-28T03:44:50.299Z,1018.94
2018-01-28T03:45:50.381Z,1019.02
2018-01-28T03:46:50.473Z,1019.08
2018-01-28T03:47:50.544Z,1018.96
2018-01-28T03:48:50.632Z,1018.91
2018-01-28T03:49:50.722Z,1018.90
2018-01-28T03:50:50.802Z,1018.87
2018-01-28T03:51:50.884Z,1018.89
2018-01-28T03:52:50.995Z,1018.85
2018-01-28T03:53:51.055Z,1018.89
2018-01-28T03:54:51.138Z,1018.96
2018-01-28T03:55:51.220Z,1018.92
2018-01-28T03:56:51.306Z,1018.90
2018-01-28T03:57:51.387Z,1018.78
2018-01-28T03:58:51.473Z,1018.77
2018-01-28T03:59:51.556Z,1018.82
2018-01-28T04:00:51.633Z,1018.78
2018-01-28T04:01:51.723Z,1018.84
2018-01-28T04:02:51.808Z,1018.79
2018-01-28T04:03:51.887Z,1018.89
2018-01-28T04:04:51.974Z,1018.83
2018-01-28T04:05:52.055Z,1018.89
2018-01-28T04:06:52.143Z,1018.88
2018-01-28T04:07:52.227Z,1018.79
2018-01-28T04:08:52.310Z,1018.81
2018-01-28T04:09:52.389Z,1018.78
2018-01-28T04:10:52.478Z,1018.73
2018-01-28T04:11:52.563Z,1018.78
2018-01-28T04:12:52.642Z,1018.74
2018-01-28T04:13:52.729Z,1018.71
2018-01-28T04:14:52.814Z,1018.72
2018-01-28T04:15:52.892Z,1018.78
2018-01-28T04:16:52.984Z,1018.85
2018-01-28T04:17:53.059Z,1018.93
2018-01-28T04:18:53.149Z,1018.88
2018-01-28T04:19:53.227Z,1019.03
2018-01-28T04:20:53.319Z,1019.07
2018-01-28T04:21:53.398Z,1019.12
2018-01-28T04:22:53.479Z,1019.18
2018-01-28T04:23:53.566Z,1019.18
2018-01-28T04:24:53.654Z,1019.22
2018-01-28T04:25:53.730Z,1019.29
2018-01-28T04:26:53.814Z,1019.32
2018-01-28T04:27:53.901Z,1019.27
2018-01-28T04:28:53.990Z,1019.20
2018-01-28T04:29:54.072Z,1019.25
2018-01-28T04:30:54.158Z,1019.26
2018-01-28T04:31:54.237Z,1019.26
2018-01-28T04:32:54.320Z,1019.26
2018-01-28T04:33:54.398Z,1019.28
2018-01-28T04:34:54.487Z,1019.24
2018-01-28T04:35:54.571Z,1019.09
2018-01-28T04:36:54.658Z,1019.09
2018-01-28T04:37:54.750Z,1019.04
2018-01-28T04:38:54.823Z,1019.02
2018-01-28T04:39:54.902Z,1018.89
2018-01-28T04:40:54.997Z,1019.00
2018-01-28T04:41:55.079Z,1018.96
2018-01-28T04:42:55.165Z,1019.12
2018-01-28T04:43:55.235Z,1019.17
2018-01-28T04:44:55.320Z,1019.17
2018-01-28T04:45:55.414Z,1019.27
2018-01-28T04:46:55.488Z,1019.27
2018-01-28T04:47:55.579Z,1019.27
2018-01-28T04:48:55.657Z,1019.31
2018-01-28T04:49:55.741Z,1019.29
2018-01-28T04:50:55.825Z,1019.20
2018-01-28T04:51:55.913Z,1019.22
2018-01-28T04:52:55.994Z,1019.24
2018-01-28T04:53:56.080Z,1019.28
2018-01-28T04:54:56.163Z,1019.34
2018-01-28T04:55:56.249Z,1019.35
2018-01-28T04:56:56.333Z,1019.44
2018-01-28T04:57:56.419Z,1019.46
2018-01-28T04:58:56.498Z,1019.45
2018-01-28T04:59:56.581Z,1019.56
2018-01-28T05:00:56.667Z,1019.50
2018-01-28T05:01:56.753Z,1019.48
2018-01-28T05:02:56.838Z,1019.41
2018-01-28T05:03:56.918Z,1019.37
2018-01-28T05:04:57.001Z,1019.34
2018-01-28T05:05:57.087Z,1019.35
2018-01-28T05:06:57.166Z,1019.36
2018-01-28T05:07:57.253Z,1019.35
2018-01-28T05:08:57.336Z,1019.37
2018-01-28T05:09:57.416Z,1019.39
2018-01-28T05:10:57.502Z,1019.36
2018-01-28T05:11:57.586Z,1019.43
2018-01-28T05:12:57.679Z,1019.51
2018-01-28T05:13:57.751Z,1019.40
2018-01-28T05:14:57.840Z,1019.48
2018-01-28T05:15:57.917Z,1019.50
2018-01-28T05:16:58.012Z,1019.53
2018-01-28T05:17:58.090Z,1019.48
2018-01-28T05:18:58.175Z,1019.46
2018-01-28T05:19:58.253Z,1019.41
2018-01-28T05:20:58.338Z,1019.42
2018-01-28T05:21:58.426Z,1019.38
2018-01-28T05:22:58.508Z,1019.46
2018-01-28T05:23:58.598Z,1019.49
2018-01-28T05:24:58.675Z,1019.49
2018-01-28T05:25:58.759Z,1019.53
2018-01-28T05:26:58.847Z,1019.42
2018-01-28T05:27:58.925Z,1019.46
2018-01-28T05:28:59.013Z,1019.43
2018-01-28T05:29:59.099Z,1019.51
2018-01-28T05:30:59.179Z,1019.46
2018-01-28T05:31:59.262Z,1019.47
2018-01-28T05:32:59.352Z,1019.50
2018-01-28T05:33:59.433Z,1019.54
2018-01-28T05:34:59.509Z,1019.51
2018-01-28T05:35:59.598Z,1019.44
2018-01-28T05:36:59.685Z,1019.34
2018-01-28T05:37:59.770Z,1019.26
2018-01-28T05:38:59.848Z,1019.25
2018-01-28T05:39:59.934Z,1019.16
2018-01-28T05:41:00.022Z,1019.24
2018-01-28T05:42:00.099Z,1019.31
2018-01-28T05:43:00.184Z,1019.34
2018-01-28T05:44:00.285Z,1019.32
2018-01-28T05:45:00.352Z,1019.37
2018-01-28T05:46:00.433Z,1019.39
2018-01-28T05:47:00.522Z,1019.46
2018-01-28T05:48:00.601Z,1019.52
2018-01-28T05:49:00.689Z,1019.59
2018-01-28T05:50:00.766Z,1019.62
2018-01-28T05:51:00.859Z,1019.61
2018-01-28T05:52:00.939Z,1019.72
2018-01-28T05:53:01.024Z,1019.76
2018-01-28T05:54:01.107Z,1019.79
2018-01-28T05:55:01.187Z,1019.80
2018-01-28T05:56:01.272Z,1019.79
2018-01-28T05:57:01.363Z,1019.77
2018-01-28T05:58:01.440Z,1019.83
2018-01-28T05:59:01.521Z,1019.84
2018-01-28T06:00:01.609Z,1019.88
2018-01-28T06:01:01.696Z,1019.89
2018-01-28T06:02:01.772Z,1019.91
2018-01-28T06:03:01.861Z,1019.94
2018-01-28T06:04:01.944Z,1019.91
2018-01-28T06:05:02.032Z,1019.93
2018-01-28T06:06:02.112Z,1019.94
2018-01-28T06:07:02.204Z,1019.99
2018-01-28T06:08:02.287Z,1019.99
2018-01-28T06:09:02.358Z,1020.12
2018-01-28T06:10:02.448Z,1020.03
2018-01-28T06:11:02.532Z,1020.10
2018-01-28T06:12:02.618Z,1020.10
2018-01-28T06:13:02.694Z,1020.13
2018-01-28T06:14:02.793Z,1020.27
2018-01-28T06:15:02.872Z,1020.30
2018-01-28T06:16:02.948Z,1020.31
2018-01-28T06:17:03.032Z,1020.27
2018-01-28T06:18:03.116Z,1020.23
2018-01-28T06:19:03.205Z,1020.23
2018-01-28T06:20:03.286Z,1020.17
2018-01-28T06:21:03.369Z,1020.12
2018-01-28T06:22:03.457Z,1020.08
2018-01-28T06:23:03.537Z,1020.15
2018-01-28T06:24:03.615Z,1020.14
2018-01-28T06:25:03.705Z,1020.10
2018-01-28T06:26:03.787Z,1020.11
2018-01-28T06:27:03.875Z,1020.16
2018-01-28T06:28:03.951Z,1020.15
2018-01-28T06:29:04.040Z,1020.13
2018-01-28T06:30:04.127Z,1020.12
2018-01-28T06:31:04.210Z,1020.14
2018-01-28T06:32:04.287Z,1020.18
2018-01-28T06:33:04.371Z,1020.14
2018-01-28T06:34:04.463Z,1020.14
2018-01-28T06:35:04.546Z,1020.10
2018-01-28T06:36:04.626Z,1020.12
2018-01-28T06:37:04.709Z,1020.17
2018-01-28T06:38:04.790Z,1020.24
2018-01-28T06:39:04.877Z,1020.30
2018-01-28T06:40:04.955Z,1020.32
2018-01-28T06:41:05.038Z,1020.28
2018-01-28T06:42:05.122Z,1020.26
2018-01-28T06:43:05.208Z,1020.28
2018-01-28T06:44:05.298Z,1020.24
2018-01-28T06:45:05.382Z,1020.21
2018-01-28T06:46:05.462Z,1020.21
2018-01-28T06:47:05.545Z,1020.13
2018-01-28T06:48:05.628Z,1020.10
2018-01-28T06:49:05.717Z,1020.14
2018-01-28T06:50:05.798Z,1020.21
2018-01-28T06:51:05.882Z,1020.18
2018-01-28T06:52:05.976Z,1020.23
2018-01-28T06:53:06.043Z,1020.17
2018-01-28T06:54:06.132Z,1020.17
2018-01-28T06:55:06.215Z,1020.22
2018-01-28T06:56:06.303Z,1020.24
2018-01-28T06:57:06.383Z,1020.31
2018-01-28T06:58:06.467Z,1020.34
2018-01-28T06:59:06.553Z,1020.38
2018-01-28T07:00:06.640Z,1020.39
2018-01-28T07:01:06.724Z,1020.42
2018-01-28T07:02:06.804Z,1020.39
2018-01-28T07:03:06.883Z,1020.40
2018-01-28T07:04:06.973Z,1020.43
2018-01-28T07:05:07.049Z,1020.44
2018-01-28T07:06:07.139Z,1020.46
2018-01-28T07:07:07.224Z,1020.47
2018-01-28T07:08:07.307Z,1020.52
2018-01-28T07:09:07.387Z,1020.53
2018-01-28T07:10:07.477Z,1020.62
2018-01-28T07:11:07.555Z,1020.61
2018-01-28T07:12:07.641Z,1020.59
2018-01-28T07:13:07.727Z,1020.60
2018-01-28T07:14:07.812Z,1020.55
2018-01-28T07:15:07.891Z,1020.58
2018-01-28T07:16:07.974Z,1020.55
2018-01-28T07:17:08.060Z,1020.53
2018-01-28T07:18:08.144Z,1020.50
2018-01-28T07:19:08.229Z,1020.51
2018-01-28T07:20:08.309Z,1020.49
2018-01-28T07:21:08.393Z,1020.56
2018-01-28T07:22:08.480Z,1020.57
2018-01-28T07:23:08.559Z,1020.63
2018-01-28T07:24:08.649Z,1020.67
2018-01-28T07:25:08.725Z,1020.69
2018-01-28T07:26:08.810Z,1020.65
2018-01-28T07:27:08.893Z,1020.72
2018-01-28T07:28:08.983Z,1020.76
2018-01-28T07:29:09.071Z,1020.74
2018-01-28T07:30:09.150Z,1020.80
2018-01-28T07:31:09.228Z,1020.76
2018-01-28T07:32:09.318Z,1020.77
2018-01-28T07:33:09.400Z,1020.75
2018-01-28T07:34:09.483Z,1020.80
2018-01-28T07:35:09.567Z,1020.86
2018-01-28T07:36:09.656Z,1020.92
2018-01-28T07:37:09.735Z,1020.95
2018-01-28T07:38:09.818Z,1020.96
2018-01-28T07:39:09.905Z,1020.99
2018-01-28T07:40:09.986Z,1020.98
2018-01-28T07:41:10.065Z,1020.95
2018-01-28T07:42:10.154Z,1020.88
2018-01-28T07:43:10.260Z,1020.87
2018-01-28T07:44:10.326Z,1020.85
2018-01-28T07:45:10.402Z,1020.88
2018-01-28T07:46:10.491Z,1020.91
2018-01-28T07:47:10.570Z,1020.95
2018-01-28T07:48:10.659Z,1021.02
2018-01-28T07:49:10.737Z,1021.07
2018-01-28T07:50:10.822Z,1021.07
2018-01-28T07:51:10.907Z,1021.00
2018-01-28T07:52:10.991Z,1020.96
2018-01-28T07:53:11.070Z,1020.98
2018-01-28T07:54:11.159Z,1021.04
2018-01-28T07:55:11.249Z,1021.00
2018-01-28T07:56:11.329Z,1021.03
2018-01-28T07:57:11.407Z,1021.11
2018-01-28T07:58:11.491Z,1021.09
2018-01-28T07:59:11.577Z,1021.08
2018-01-28T08:00:11.664Z,1021.07
2018-01-28T08:01:11.764Z,1021.05
2018-01-28T08:02:11.838Z,1021.01
2018-01-28T08:03:11.916Z,1021.02
2018-01-28T08:04:11.997Z,1020.96
2018-01-28T08:05:12.078Z,1020.96
2018-01-28T08:06:12.171Z,1021.00
2018-01-28T08:07:12.254Z,1021.05
2018-01-28T08:08:12.341Z,1020.98
2018-01-28T08:09:12.411Z,1020.94
2018-01-28T08:10:12.503Z,1020.93
2018-01-28T08:11:12.579Z,1020.85
2018-01-28T08:12:12.667Z,1020.83
2018-01-28T08:13:12.748Z,1020.82
2018-01-28T08:14:12.834Z,1020.80
2018-01-28T08:15:12.914Z,1020.82
2018-01-28T08:16:13.002Z,1020.76
2018-01-28T08:17:13.086Z,1020.77
2018-01-28T08:18:13.172Z,1020.76
2018-01-28T08:19:13.254Z,1020.80
2018-01-28T08:20:13.337Z,1020.78
2018-01-28T08:21:13.420Z,1020.81
2018-01-28T08:22:13.505Z,1020.82
2018-01-28T08:23:13.596Z,1020.84
2018-01-28T08:24:13.671Z,1020.82
2018-01-28T08:25:13.759Z,1020.83
2018-01-28T08:26:13.836Z,1020.81
2018-01-28T08:27:13.924Z,1020.81
2018-01-28T08:28:14.009Z,1020.92
2018-01-28T08:29:14.093Z,1020.91
2018-01-28T08:30:14.175Z,1020.91
2018-01-28T08:31:14.261Z,1020.93
2018-01-28T08:32:14.343Z,1020.99
2018-01-28T08:33:14.424Z,1020.98
2018-01-28T08:34:14.506Z,1021.02
2018-01-28T08:35:14.591Z,1021.02
2018-01-28T08:36:14.683Z,1021.03
2018-01-28T08:37:14.763Z,1020.99
2018-01-28T08:38:14.847Z,1021.03
2018-01-28T08:39:14.926Z,1021.01
2018-01-28T08:40:15.011Z,1021.02
2018-01-28T08:41:15.098Z,1020.92
2018-01-28T08:42:15.186Z,1020.93
2018-01-28T08:43:15.264Z,1020.91
2018-01-28T08:44:15.353Z,1020.93
2018-01-28T08:45:15.434Z,1020.97
2018-01-28T08:46:15.521Z,1021.04
2018-01-28T08:47:15.600Z,1021.15
2018-01-28T08:48:15.681Z,1021.12
2018-01-28T08:49:15.772Z,1021.17
2018-01-28T08:50:15.849Z,1021.14
2018-01-28T08:51:15.932Z,1021.15
2018-01-28T08:52:16.018Z,1021.12
2018-01-28T08:53:16.097Z,1021.09
2018-01-28T08:54:16.191Z,1021.14
2018-01-28T08:55:16.270Z,1021.15
2018-01-28T08:56:16.370Z,1021.14
2018-01-28T08:57:16.434Z,1021.21
2018-01-28T08:58:16.525Z,1021.19
2018-01-28T08:59:16.600Z,1021.20
2018-01-28T09:00:16.691Z,1021.17
2018-01-28T09:01:16.773Z,1021.16
2018-01-28T09:02:16.858Z,1021.18
2018-01-28T09:03:16.942Z,1021.14
2018-01-28T09:04:17.021Z,1021.14
2018-01-28T09:05:17.103Z,1021.12
2018-01-28T09:06:17.189Z,1021.16
2018-01-28T09:07:17.272Z,1021.11
2018-01-28T09:08:17.361Z,1021.08
2018-01-28T09:09:17.440Z,1021.14
2018-01-28T09:10:17.524Z,1021.14
2018-01-28T09:11:17.615Z,1021.19
2018-01-28T09:12:17.692Z,1021.20
2018-01-28T09:13:17.777Z,1021.26
2018-01-28T09:14:17.857Z,1021.24
2018-01-28T09:15:17.943Z,1021.22
2018-01-28T09:16:18.034Z,1021.28
2018-01-28T09:17:18.112Z,1021.19
2018-01-28T09:18:18.195Z,1021.18
2018-01-28T09:19:18.287Z,1021.16
2018-01-28T09:20:18.362Z,1021.29
2018-01-28T09:21:18.450Z,1021.28
2018-01-28T09:22:18.533Z,1021.35
2018-01-28T09:23:18.616Z,1021.31
2018-01-28T09:24:18.703Z,1021.41
2018-01-28T09:25:18.778Z,1021.38
2018-01-28T09:26:18.874Z,1021.40
2018-01-28T09:27:18.951Z,1021.44
2018-01-28T09:28:19.036Z,1021.46
2018-01-28T09:29:19.124Z,1021.48
2018-01-28T09:30:19.201Z,1021.49
2018-01-28T09:31:19.290Z,1021.45
2018-01-28T09:32:19.373Z,1021.44
2018-01-28T09:33:19.449Z,1021.46
2018-01-28T09:34:19.534Z,1021.46
2018-01-28T09:35:19.618Z,1021.51
2018-01-28T09:36:19.710Z,1021.54
2018-01-28T09:37:19.787Z,1021.57
2018-01-28T09:38:19.872Z,1021.52
2018-01-28T09:39:19.957Z,1021.50
2018-01-28T09:40:20.038Z,1021.46
2018-01-28T09:41:20.127Z,1021.54
2018-01-28T09:42:20.208Z,1021.58
2018-01-28T09:43:20.299Z,1021.61
2018-01-28T09:44:20.380Z,1021.64
2018-01-28T09:45:20.458Z,1021.64
2018-01-28T09:46:20.545Z,1021.60
2018-01-28T09:47:20.630Z,1021.59
2018-01-28T09:48:20.715Z,1021.64
2018-01-28T09:49:20.798Z,1021.69
2018-01-28T09:50:20.881Z,1021.58
2018-01-28T09:51:20.965Z,1021.67
2018-01-28T09:52:21.049Z,1021.65
2018-01-28T09:53:21.127Z,1021.67
2018-01-28T09:54:21.215Z,1021.70
2018-01-28T09:55:21.301Z,1021.65
2018-01-28T09:56:21.387Z,1021.67
2018-01-28T09:57:21.462Z,1021.68
2018-01-28T09:58:21.546Z,1021.55
2018-01-28T09:59:21.637Z,1021.53
2018-01-28T10:00:21.722Z,1021.40
2018-01-28T10:01:21.798Z,1021.39
2018-01-28T10:02:21.890Z,1021.40
2018-01-28T10:03:21.969Z,1021.35
2018-01-28T10:04:22.052Z,1021.30
2018-01-28T10:05:22.141Z,1021.39
2018-01-28T10:06:22.223Z,1021.39
2018-01-28T10:07:22.309Z,1021.49
2018-01-28T10:08:22.390Z,1021.56
2018-01-28T10:09:22.476Z,1021.56
2018-01-28T10:10:22.552Z,1021.68
2018-01-28T10:11:22.638Z,1021.63
2018-01-28T10:12:22.727Z,1021.56
2018-01-28T10:13:22.810Z,1021.59
2018-01-28T10:14:22.896Z,1021.59
2018-01-28T10:15:22.973Z,1021.59
2018-01-28T10:16:23.058Z,1021.58
2018-01-28T10:17:23.146Z,1021.53
2018-01-28T10:18:23.231Z,1021.47
2018-01-28T10:19:23.317Z,1021.54
2018-01-28T10:20:23.396Z,1021.58
2018-01-28T10:21:23.478Z,1021.55
2018-01-28T10:22:23.592Z,1021.55
2018-01-28T10:23:23.650Z,1021.55
2018-01-28T10:24:23.726Z,1021.62
2018-01-28T10:25:23.814Z,1021.55
2018-01-28T10:26:23.898Z,1021.73
2018-01-28T10:27:23.984Z,1021.77
2018-01-28T10:28:24.067Z,1021.76
2018-01-28T10:29:24.150Z,1021.68
2018-01-28T10:30:24.233Z,1021.68
2018-01-28T10:31:24.318Z,1021.61
2018-01-28T10:32:24.401Z,1021.66
2018-01-28T10:33:24.491Z,1021.66
2018-01-28T10:34:24.579Z,1021.69
2018-01-28T10:35:24.655Z,1021.64
2018-01-28T10:36:24.735Z,1021.69
2018-01-28T10:37:24.819Z,1021.67
2018-01-28T10:38:24.901Z,1021.72
2018-01-28T10:39:24.989Z,1021.65
2018-01-28T10:40:25.072Z,1021.74
2018-01-28T10:41:25.160Z,1021.71
2018-01-28T10:42:25.241Z,1021.70
2018-01-28T10:43:25.330Z,1021.72
2018-01-28T10:44:25.416Z,1021.68
2018-01-28T10:45:25.486Z,1021.67
2018-01-28T10:46:25.572Z,1021.73
2018-01-28T10:47:25.660Z,1021.66
2018-01-28T10:48:25.749Z,1021.63
2018-01-28T10:49:25.826Z,1021.66
2018-01-28T10:50:25.913Z,1021.63
2018-01-28T10:51:25.996Z,1021.59
2018-01-28T10:52:26.079Z,1021.66
2018-01-28T10:53:26.165Z,1021.64
2018-01-28T10:54:26.243Z,1021.58
2018-01-28T10:55:26.334Z,1021.61
2018-01-28T10:56:26.412Z,1021.62
2018-01-28T10:57:26.506Z,1021.59
2018-01-28T10:58:26.587Z,1021.64
2018-01-28T10:59:26.666Z,1021.61
2018-01-28T11:00:26.754Z,1021.59
2018-01-28T11:01:26.836Z,1021.50
2018-01-28T11:02:26.920Z,1021.51
2018-01-28T11:03:27.008Z,1021.47
2018-01-28T11:04:27.091Z,1021.55
2018-01-28T11:05:27.173Z,1021.50
2018-01-28T11:06:27.252Z,1021.51
2018-01-28T11:07:27.376Z,1021.48
2018-01-28T11:08:27.417Z,1021.50
2018-01-28T11:09:27.506Z,1021.45
2018-01-28T11:10:27.632Z,1021.45
2018-01-28T11:11:27.669Z,1021.51
2018-01-28T11:12:27.756Z,1021.47
2018-01-28T11:13:27.838Z,1021.50
2018-01-28T11:14:27.930Z,1021.53
2018-01-28T11:15:28.015Z,1021.56
2018-01-28T11:16:28.094Z,1021.52
2018-01-28T11:17:28.224Z,1021.59
2018-01-28T11:18:28.265Z,1021.62
2018-01-28T11:19:28.340Z,1021.63
2018-01-28T11:20:28.433Z,1021.67
2018-01-28T11:21:28.519Z,1021.68
2018-01-28T11:22:28.596Z,1021.70
2018-01-28T11:23:28.677Z,1021.72
2018-01-28T11:24:28.766Z,1021.68
2018-01-28T11:25:28.849Z,1021.74
2018-01-28T11:26:28.937Z,1021.73
2018-01-28T11:27:29.065Z,1021.72
2018-01-28T11:28:29.103Z,1021.74
2018-01-28T11:29:29.184Z,1021.70
2018-01-28T11:30:29.268Z,1021.72
2018-01-28T11:31:29.349Z,1021.68
2018-01-28T11:32:29.438Z,1021.70
2018-01-28T11:33:29.515Z,1021.63
2018-01-28T11:34:29.604Z,1021.65
2018-01-28T11:35:29.685Z,1021.70
2018-01-28T11:36:29.772Z,1021.67
2018-01-28T11:37:29.856Z,1021.67
2018-01-28T11:38:29.941Z,1021.71
2018-01-28T11:39:30.025Z,1021.67
2018-01-28T11:40:30.106Z,1021.73
2018-01-28T11:41:30.187Z,1021.67
2018-01-28T11:42:30.272Z,1021.67
2018-01-28T11:43:30.357Z,1021.68
2018-01-28T11:44:30.448Z,1021.60
2018-01-28T11:45:30.525Z,1021.66
2018-01-28T11:46:30.614Z,1021.61
2018-01-28T11:47:30.699Z,1021.60
2018-01-28T11:48:30.780Z,1021.53
2018-01-28T11:49:30.864Z,1021.58
2018-01-28T11:50:30.946Z,1021.58
2018-01-28T11:51:31.033Z,1021.60
2018-01-28T11:52:31.114Z,1021.61
2018-01-28T11:53:31.206Z,1021.63
2018-01-28T11:54:31.283Z,1021.70
2018-01-28T11:55:31.373Z,1021.69
2018-01-28T11:56:31.452Z,1021.76
2018-01-28T11:57:31.544Z,1021.78
2018-01-28T11:58:31.622Z,1021.77
2018-01-28T11:59:31.706Z,1021.76
2018-01-28T12:00:31.793Z,1021.70
2018-01-28T12:01:31.872Z,1021.66
2018-01-28T12:02:31.960Z,1021.64
2018-01-28T12:03:32.052Z,1021.59
2018-01-28T12:04:32.122Z,1021.62
2018-01-28T12:05:32.213Z,1021.57
2018-01-28T12:06:32.292Z,1021.50